sensor_id;sensor_type;location;lat;lon;timestamp;P1;durP1;ratioP1;P2;durP2;ratioP2
60336;SDS011;46978;50.288;28.624;2023-04-03T00:00:33;28.09;;;15.61;;
60336;SDS011;46978;50.288;28.624;2023-04-03T00:01:35;27.44;;;15.98;;
60336;SDS011;46978;50.288;28.624;2023-04-03T00:02:37;28.79;;;16.06;;
60336;SDS011;46978;50.288;28.624;2023-04-03T00:03:38;28.68;;;15.13;;
60336;SDS011;46978;50.288;28.624;2023-04-03T00:04:40;31.00;;;16.72;;
60336;SDS011;46978;50.288;28.624;2023-04-03T00:05:43;28.87;;;16.33;;
60336;SDS011;46978;50.288;28.624;2023-04-03T00:06:47;28.25;;;15.92;;
60336;SDS011;46978;50.288;28.624;2023-04-03T00:07:48;33.28;;;15.84;;
60336;SDS011;46978;50.288;28.624;2023-04-03T00:08:50;28.94;;;15.33;;
60336;SDS011;46978;50.288;28.624;2023-04-03T00:09:53;29.73;;;15.74;;
60336;SDS011;46978;50.288;28.624;2023-04-03T00:10:54;26.11;;;14.99;;
60336;SDS011;46978;50.288;28.624;2023-04-03T00:11:56;29.92;;;15.84;;
60336;SDS011;46978;50.288;28.624;2023-04-03T00:12:57;27.68;;;14.77;;
60336;SDS011;46978;50.288;28.624;2023-04-03T00:13:59;28.69;;;15.06;;
60336;SDS011;46978;50.288;28.624;2023-04-03T00:15:01;28.56;;;15.30;;
60336;SDS011;46978;50.288;28.624;2023-04-03T00:16:03;26.02;;;14.51;;
60336;SDS011;46978;50.288;28.624;2023-04-03T00:17:05;25.79;;;14.12;;
60336;SDS011;46978;50.288;28.624;2023-04-03T00:18:07;26.14;;;13.67;;
60336;SDS011;46978;50.288;28.624;2023-04-03T00:19:09;23.21;;;12.07;;
60336;SDS011;46978;50.288;28.624;2023-04-03T00:20:11;22.89;;;11.83;;
60336;SDS011;46978;50.288;28.624;2023-04-03T00:21:13;25.10;;;12.95;;
60336;SDS011;46978;50.288;28.624;2023-04-03T00:22:15;20.35;;;11.83;;
60336;SDS011;46978;50.288;28.624;2023-04-03T00:23:17;19.02;;;11.09;;
60336;SDS011;46978;50.288;28.624;2023-04-03T00:24:19;19.44;;;11.24;;
60336;SDS011;46978;50.288;28.624;2023-04-03T00:25:20;19.73;;;10.66;;
60336;SDS011;46978;50.288;28.624;2023-04-03T00:26:23;19.69;;;11.17;;
60336;SDS011;46978;50.288;28.624;2023-04-03T00:27:24;18.05;;;11.23;;
60336;SDS011;46978;50.288;28.624;2023-04-03T00:28:26;17.31;;;10.97;;
60336;SDS011;46978;50.288;28.624;2023-04-03T00:29:28;17.99;;;11.17;;
60336;SDS011;46978;50.288;28.624;2023-04-03T00:30:30;19.99;;;11.18;;
60336;SDS011;46978;50.288;28.624;2023-04-03T00:31:32;19.07;;;10.70;;
60336;SDS011;46978;50.288;28.624;2023-04-03T00:32:34;20.39;;;11.69;;
60336;SDS011;46978;50.288;28.624;2023-04-03T00:33:35;16.09;;;10.10;;
60336;SDS011;46978;50.288;28.624;2023-04-03T00:34:37;13.12;;;8.30;;
60336;SDS011;46978;50.288;28.624;2023-04-03T00:35:39;14.14;;;8.60;;
60336;SDS011;46978;50.288;28.624;2023-04-03T00:36:42;15.38;;;9.06;;
60336;SDS011;46978;50.288;28.624;2023-04-03T00:37:44;14.54;;;8.49;;
60336;SDS011;46978;50.288;28.624;2023-04-03T00:38:46;16.59;;;9.65;;
60336;SDS011;46978;50.288;28.624;2023-04-03T00:39:47;11.26;;;7.28;;
60336;SDS011;46978;50.288;28.624;2023-04-03T00:40:49;12.10;;;7.71;;
60336;SDS011;46978;50.288;28.624;2023-04-03T00:41:51;15.17;;;8.83;;
60336;SDS011;46978;50.288;28.624;2023-04-03T00:42:57;13.39;;;8.23;;
60336;SDS011;46978;50.288;28.624;2023-04-03T00:43:59;13.66;;;8.02;;
60336;SDS011;46978;50.288;28.624;2023-04-03T00:46:07;14.16;;;8.66;;
60336;SDS011;46978;50.288;28.624;2023-04-03T00:47:10;13.35;;;8.75;;
60336;SDS011;46978;50.288;28.624;2023-04-03T00:48:21;15.90;;;9.61;;
60336;SDS011;46978;50.288;28.624;2023-04-03T00:49:25;14.79;;;9.42;;
60336;SDS011;46978;50.288;28.624;2023-04-03T00:50:28;15.34;;;9.34;;
60336;SDS011;46978;50.288;28.624;2023-04-03T00:51:32;16.45;;;9.95;;
60336;SDS011;46978;50.288;28.624;2023-04-03T00:52:34;15.23;;;9.85;;
60336;SDS011;46978;50.288;28.624;2023-04-03T00:53:38;14.90;;;9.35;;
60336;SDS011;46978;50.288;28.624;2023-04-03T00:54:42;15.49;;;9.52;;
60336;SDS011;46978;50.288;28.624;2023-04-03T00:55:47;15.49;;;9.44;;
60336;SDS011;46978;50.288;28.624;2023-04-03T00:57:01;14.36;;;9.17;;
60336;SDS011;46978;50.288;28.624;2023-04-03T00:58:03;13.33;;;8.54;;
60336;SDS011;46978;50.288;28.624;2023-04-03T00:59:11;15.45;;;9.56;;
60336;SDS011;46978;50.288;28.624;2023-04-03T01:00:19;13.18;;;8.66;;
60336;SDS011;46978;50.288;28.624;2023-04-03T01:01:24;12.89;;;8.09;;
60336;SDS011;46978;50.288;28.624;2023-04-03T01:02:28;13.99;;;8.97;;
60336;SDS011;46978;50.288;28.624;2023-04-03T01:03:30;12.89;;;7.34;;
60336;SDS011;46978;50.288;28.624;2023-04-03T01:05:37;14.81;;;8.79;;
60336;SDS011;46978;50.288;28.624;2023-04-03T01:06:39;13.50;;;8.32;;
60336;SDS011;46978;50.288;28.624;2023-04-03T01:07:41;13.04;;;8.30;;
60336;SDS011;46978;50.288;28.624;2023-04-03T01:08:42;11.76;;;7.79;;
60336;SDS011;46978;50.288;28.624;2023-04-03T01:09:45;10.91;;;7.01;;
60336;SDS011;46978;50.288;28.624;2023-04-03T01:10:49;10.25;;;6.35;;
60336;SDS011;46978;50.288;28.624;2023-04-03T01:11:51;10.93;;;7.01;;
60336;SDS011;46978;50.288;28.624;2023-04-03T01:12:53;9.88;;;6.67;;
60336;SDS011;46978;50.288;28.624;2023-04-03T01:13:54;12.02;;;6.98;;
60336;SDS011;46978;50.288;28.624;2023-04-03T01:14:59;9.71;;;6.42;;
60336;SDS011;46978;50.288;28.624;2023-04-03T01:16:03;10.38;;;7.03;;
60336;SDS011;46978;50.288;28.624;2023-04-03T01:18:32;12.96;;;7.04;;
60336;SDS011;46978;50.288;28.624;2023-04-03T01:19:36;10.21;;;6.83;;
60336;SDS011;46978;50.288;28.624;2023-04-03T01:21:08;11.97;;;7.19;;
60336;SDS011;46978;50.288;28.624;2023-04-03T01:22:24;11.52;;;6.79;;
60336;SDS011;46978;50.288;28.624;2023-04-03T01:23:32;12.29;;;7.46;;
60336;SDS011;46978;50.288;28.624;2023-04-03T01:24:38;12.59;;;7.27;;
60336;SDS011;46978;50.288;28.624;2023-04-03T01:25:41;10.40;;;7.35;;
60336;SDS011;46978;50.288;28.624;2023-04-03T01:26:48;12.81;;;7.82;;
60336;SDS011;46978;50.288;28.624;2023-04-03T01:27:50;11.18;;;7.21;;
60336;SDS011;46978;50.288;28.624;2023-04-03T01:28:53;11.18;;;6.76;;
60336;SDS011;46978;50.288;28.624;2023-04-03T01:29:56;10.94;;;7.02;;
60336;SDS011;46978;50.288;28.624;2023-04-03T01:32:33;7.25;;;4.77;;
60336;SDS011;46978;50.288;28.624;2023-04-03T01:33:35;7.59;;;5.26;;
60336;SDS011;46978;50.288;28.624;2023-04-03T01:34:38;6.85;;;4.78;;
60336;SDS011;46978;50.288;28.624;2023-04-03T01:35:40;5.86;;;4.04;;
60336;SDS011;46978;50.288;28.624;2023-04-03T01:36:41;5.97;;;4.11;;
60336;SDS011;46978;50.288;28.624;2023-04-03T01:37:43;7.58;;;4.55;;
60336;SDS011;46978;50.288;28.624;2023-04-03T01:38:45;5.65;;;3.78;;
60336;SDS011;46978;50.288;28.624;2023-04-03T01:39:48;6.62;;;4.01;;
60336;SDS011;46978;50.288;28.624;2023-04-03T01:40:49;6.41;;;4.17;;
60336;SDS011;46978;50.288;28.624;2023-04-03T01:41:51;7.39;;;4.79;;
60336;SDS011;46978;50.288;28.624;2023-04-03T01:42:53;7.80;;;5.15;;
60336;SDS011;46978;50.288;28.624;2023-04-03T01:43:54;7.71;;;5.51;;
60336;SDS011;46978;50.288;28.624;2023-04-03T01:44:56;7.88;;;4.57;;
60336;SDS011;46978;50.288;28.624;2023-04-03T01:45:58;4.93;;;3.42;;
60336;SDS011;46978;50.288;28.624;2023-04-03T01:47:00;5.60;;;3.83;;
60336;SDS011;46978;50.288;28.624;2023-04-03T01:48:02;6.09;;;4.22;;
60336;SDS011;46978;50.288;28.624;2023-04-03T01:49:04;7.54;;;4.33;;
60336;SDS011;46978;50.288;28.624;2023-04-03T01:50:06;8.24;;;6.05;;
60336;SDS011;46978;50.288;28.624;2023-04-03T01:51:08;7.73;;;5.67;;
60336;SDS011;46978;50.288;28.624;2023-04-03T01:52:11;9.91;;;6.07;;
60336;SDS011;46978;50.288;28.624;2023-04-03T01:53:12;6.96;;;5.12;;
60336;SDS011;46978;50.288;28.624;2023-04-03T01:54:16;8.44;;;5.58;;
60336;SDS011;46978;50.288;28.624;2023-04-03T01:55:17;9.18;;;5.99;;
60336;SDS011;46978;50.288;28.624;2023-04-03T01:56:19;6.83;;;4.71;;
60336;SDS011;46978;50.288;28.624;2023-04-03T01:57:21;8.27;;;5.51;;
60336;SDS011;46978;50.288;28.624;2023-04-03T01:58:24;9.56;;;6.37;;
60336;SDS011;46978;50.288;28.624;2023-04-03T01:59:26;8.87;;;5.73;;
60336;SDS011;46978;50.288;28.624;2023-04-03T02:00:28;6.88;;;4.34;;
60336;SDS011;46978;50.288;28.624;2023-04-03T02:01:30;6.26;;;4.04;;
60336;SDS011;46978;50.288;28.624;2023-04-03T02:02:31;3.10;;;1.95;;
60336;SDS011;46978;50.288;28.624;2023-04-03T02:03:33;2.46;;;1.39;;
60336;SDS011;46978;50.288;28.624;2023-04-03T02:04:36;1.60;;;0.82;;
60336;SDS011;46978;50.288;28.624;2023-04-03T02:05:38;2.09;;;1.04;;
60336;SDS011;46978;50.288;28.624;2023-04-03T02:06:40;2.39;;;1.21;;
60336;SDS011;46978;50.288;28.624;2023-04-03T02:07:41;1.80;;;0.84;;
60336;SDS011;46978;50.288;28.624;2023-04-03T02:08:43;3.09;;;1.20;;
60336;SDS011;46978;50.288;28.624;2023-04-03T02:09:45;3.62;;;0.99;;
60336;SDS011;46978;50.288;28.624;2023-04-03T02:10:47;2.42;;;1.20;;
60336;SDS011;46978;50.288;28.624;2023-04-03T02:11:52;1.43;;;0.78;;
60336;SDS011;46978;50.288;28.624;2023-04-03T02:12:54;2.22;;;1.23;;
60336;SDS011;46978;50.288;28.624;2023-04-03T02:13:57;2.24;;;1.09;;
60336;SDS011;46978;50.288;28.624;2023-04-03T02:15:02;1.76;;;0.91;;
60336;SDS011;46978;50.288;28.624;2023-04-03T02:16:08;1.79;;;1.06;;
60336;SDS011;46978;50.288;28.624;2023-04-03T02:17:10;1.72;;;0.91;;
60336;SDS011;46978;50.288;28.624;2023-04-03T02:18:12;3.40;;;1.17;;
60336;SDS011;46978;50.288;28.624;2023-04-03T02:19:15;2.84;;;1.39;;
60336;SDS011;46978;50.288;28.624;2023-04-03T02:20:17;1.85;;;0.93;;
60336;SDS011;46978;50.288;28.624;2023-04-03T02:21:19;2.01;;;1.09;;
60336;SDS011;46978;50.288;28.624;2023-04-03T02:22:20;1.49;;;0.80;;
60336;SDS011;46978;50.288;28.624;2023-04-03T02:23:22;2.56;;;1.01;;
60336;SDS011;46978;50.288;28.624;2023-04-03T02:24:24;1.56;;;0.90;;
60336;SDS011;46978;50.288;28.624;2023-04-03T02:25:27;1.67;;;0.81;;
60336;SDS011;46978;50.288;28.624;2023-04-03T02:26:32;3.36;;;1.27;;
60336;SDS011;46978;50.288;28.624;2023-04-03T02:27:34;1.69;;;0.94;;
60336;SDS011;46978;50.288;28.624;2023-04-03T02:28:37;2.38;;;1.12;;
60336;SDS011;46978;50.288;28.624;2023-04-03T02:29:40;1.87;;;1.05;;
60336;SDS011;46978;50.288;28.624;2023-04-03T02:30:41;2.56;;;1.09;;
60336;SDS011;46978;50.288;28.624;2023-04-03T02:31:43;2.87;;;1.70;;
60336;SDS011;46978;50.288;28.624;2023-04-03T02:32:45;3.67;;;1.90;;
60336;SDS011;46978;50.288;28.624;2023-04-03T02:33:49;4.80;;;2.39;;
60336;SDS011;46978;50.288;28.624;2023-04-03T02:34:50;3.55;;;1.56;;
60336;SDS011;46978;50.288;28.624;2023-04-03T02:35:54;5.06;;;2.30;;
60336;SDS011;46978;50.288;28.624;2023-04-03T02:36:57;5.09;;;2.51;;
60336;SDS011;46978;50.288;28.624;2023-04-03T02:37:58;2.82;;;1.28;;
60336;SDS011;46978;50.288;28.624;2023-04-03T02:39:00;2.67;;;1.38;;
60336;SDS011;46978;50.288;28.624;2023-04-03T02:40:03;3.01;;;1.29;;
60336;SDS011;46978;50.288;28.624;2023-04-03T02:41:07;3.93;;;2.26;;
60336;SDS011;46978;50.288;28.624;2023-04-03T02:42:11;3.72;;;2.14;;
60336;SDS011;46978;50.288;28.624;2023-04-03T02:43:12;3.61;;;1.79;;
60336;SDS011;46978;50.288;28.624;2023-04-03T02:44:15;2.83;;;1.69;;
60336;SDS011;46978;50.288;28.624;2023-04-03T02:45:17;3.79;;;1.96;;
60336;SDS011;46978;50.288;28.624;2023-04-03T02:46:18;2.96;;;1.74;;
60336;SDS011;46978;50.288;28.624;2023-04-03T02:47:20;2.69;;;1.65;;
60336;SDS011;46978;50.288;28.624;2023-04-03T02:48:22;2.32;;;1.49;;
60336;SDS011;46978;50.288;28.624;2023-04-03T02:49:24;3.71;;;1.69;;
60336;SDS011;46978;50.288;28.624;2023-04-03T02:50:26;2.26;;;1.33;;
60336;SDS011;46978;50.288;28.624;2023-04-03T02:51:27;2.11;;;1.33;;
60336;SDS011;46978;50.288;28.624;2023-04-03T02:52:31;3.05;;;1.54;;
60336;SDS011;46978;50.288;28.624;2023-04-03T02:53:33;2.55;;;1.62;;
60336;SDS011;46978;50.288;28.624;2023-04-03T02:54:35;5.51;;;2.61;;
60336;SDS011;46978;50.288;28.624;2023-04-03T02:55:36;6.21;;;3.02;;
60336;SDS011;46978;50.288;28.624;2023-04-03T02:56:38;3.04;;;1.77;;
60336;SDS011;46978;50.288;28.624;2023-04-03T02:57:40;3.57;;;1.88;;
60336;SDS011;46978;50.288;28.624;2023-04-03T02:58:42;2.89;;;1.67;;
60336;SDS011;46978;50.288;28.624;2023-04-03T02:59:44;3.08;;;1.60;;
60336;SDS011;46978;50.288;28.624;2023-04-03T03:00:45;2.59;;;1.36;;
60336;SDS011;46978;50.288;28.624;2023-04-03T03:01:47;3.11;;;1.99;;
60336;SDS011;46978;50.288;28.624;2023-04-03T03:02:49;5.12;;;2.81;;
60336;SDS011;46978;50.288;28.624;2023-04-03T03:03:50;4.49;;;2.44;;
60336;SDS011;46978;50.288;28.624;2023-04-03T03:04:52;3.44;;;2.13;;
60336;SDS011;46978;50.288;28.624;2023-04-03T03:06:00;3.24;;;1.94;;
60336;SDS011;46978;50.288;28.624;2023-04-03T03:07:04;3.86;;;2.01;;
60336;SDS011;46978;50.288;28.624;2023-04-03T03:08:06;2.71;;;1.50;;
60336;SDS011;46978;50.288;28.624;2023-04-03T03:09:08;3.82;;;1.96;;
60336;SDS011;46978;50.288;28.624;2023-04-03T03:10:10;3.68;;;2.05;;
60336;SDS011;46978;50.288;28.624;2023-04-03T03:11:12;3.54;;;1.66;;
60336;SDS011;46978;50.288;28.624;2023-04-03T03:12:13;2.53;;;1.54;;
60336;SDS011;46978;50.288;28.624;2023-04-03T03:13:15;3.86;;;2.13;;
60336;SDS011;46978;50.288;28.624;2023-04-03T03:14:18;4.40;;;2.33;;
60336;SDS011;46978;50.288;28.624;2023-04-03T03:15:19;2.24;;;1.33;;
60336;SDS011;46978;50.288;28.624;2023-04-03T03:16:21;4.44;;;2.04;;
60336;SDS011;46978;50.288;28.624;2023-04-03T03:17:23;2.85;;;1.33;;
60336;SDS011;46978;50.288;28.624;2023-04-03T03:18:25;2.27;;;1.32;;
60336;SDS011;46978;50.288;28.624;2023-04-03T03:19:27;2.55;;;1.37;;
60336;SDS011;46978;50.288;28.624;2023-04-03T03:20:29;3.01;;;1.62;;
60336;SDS011;46978;50.288;28.624;2023-04-03T03:21:30;2.47;;;1.33;;
60336;SDS011;46978;50.288;28.624;2023-04-03T03:22:33;2.50;;;1.51;;
60336;SDS011;46978;50.288;28.624;2023-04-03T03:23:35;2.69;;;1.54;;
60336;SDS011;46978;50.288;28.624;2023-04-03T03:24:37;2.05;;;1.29;;
60336;SDS011;46978;50.288;28.624;2023-04-03T03:25:39;3.62;;;1.50;;
60336;SDS011;46978;50.288;28.624;2023-04-03T03:26:41;3.85;;;1.79;;
60336;SDS011;46978;50.288;28.624;2023-04-03T03:27:43;2.90;;;1.69;;
60336;SDS011;46978;50.288;28.624;2023-04-03T03:28:45;3.35;;;1.72;;
60336;SDS011;46978;50.288;28.624;2023-04-03T03:29:47;3.19;;;1.79;;
60336;SDS011;46978;50.288;28.624;2023-04-03T03:30:48;2.55;;;1.45;;
60336;SDS011;46978;50.288;28.624;2023-04-03T03:31:52;2.67;;;1.55;;
60336;SDS011;46978;50.288;28.624;2023-04-03T03:32:53;2.39;;;1.37;;
60336;SDS011;46978;50.288;28.624;2023-04-03T03:33:55;3.11;;;1.70;;
60336;SDS011;46978;50.288;28.624;2023-04-03T03:34:57;2.74;;;1.71;;
60336;SDS011;46978;50.288;28.624;2023-04-03T03:35:59;3.07;;;1.67;;
60336;SDS011;46978;50.288;28.624;2023-04-03T03:37:01;2.39;;;1.31;;
60336;SDS011;46978;50.288;28.624;2023-04-03T03:38:03;2.76;;;1.49;;
60336;SDS011;46978;50.288;28.624;2023-04-03T03:39:08;2.84;;;1.78;;
60336;SDS011;46978;50.288;28.624;2023-04-03T03:40:10;2.69;;;1.50;;
60336;SDS011;46978;50.288;28.624;2023-04-03T03:41:12;2.49;;;1.48;;
60336;SDS011;46978;50.288;28.624;2023-04-03T03:42:14;2.52;;;1.43;;
60336;SDS011;46978;50.288;28.624;2023-04-03T03:43:16;2.40;;;1.47;;
60336;SDS011;46978;50.288;28.624;2023-04-03T03:44:18;2.63;;;1.31;;
60336;SDS011;46978;50.288;28.624;2023-04-03T03:45:21;2.39;;;1.34;;
60336;SDS011;46978;50.288;28.624;2023-04-03T03:46:22;2.84;;;1.55;;
60336;SDS011;46978;50.288;28.624;2023-04-03T03:47:24;2.69;;;1.45;;
60336;SDS011;46978;50.288;28.624;2023-04-03T03:48:26;3.22;;;1.56;;
60336;SDS011;46978;50.288;28.624;2023-04-03T03:49:30;2.88;;;1.62;;
60336;SDS011;46978;50.288;28.624;2023-04-03T03:50:32;3.75;;;2.26;;
60336;SDS011;46978;50.288;28.624;2023-04-03T03:51:34;2.95;;;1.59;;
60336;SDS011;46978;50.288;28.624;2023-04-03T03:52:36;4.53;;;1.47;;
60336;SDS011;46978;50.288;28.624;2023-04-03T03:53:38;2.33;;;1.39;;
60336;SDS011;46978;50.288;28.624;2023-04-03T03:54:39;3.25;;;1.48;;
60336;SDS011;46978;50.288;28.624;2023-04-03T03:55:41;4.12;;;1.71;;
60336;SDS011;46978;50.288;28.624;2023-04-03T03:58:41;3.10;;;1.41;;
60336;SDS011;46978;50.288;28.624;2023-04-03T03:59:44;3.63;;;1.69;;
60336;SDS011;46978;50.288;28.624;2023-04-03T04:00:48;2.69;;;1.48;;
60336;SDS011;46978;50.288;28.624;2023-04-03T04:01:49;4.30;;;2.12;;
60336;SDS011;46978;50.288;28.624;2023-04-03T04:02:51;3.95;;;1.83;;
60336;SDS011;46978;50.288;28.624;2023-04-03T04:03:53;4.60;;;2.45;;
60336;SDS011;46978;50.288;28.624;2023-04-03T04:04:56;3.52;;;1.68;;
60336;SDS011;46978;50.288;28.624;2023-04-03T04:05:58;2.85;;;1.31;;
60336;SDS011;46978;50.288;28.624;2023-04-03T04:07:00;3.41;;;1.67;;
60336;SDS011;46978;50.288;28.624;2023-04-03T04:08:01;3.06;;;1.50;;
60336;SDS011;46978;50.288;28.624;2023-04-03T04:09:03;3.64;;;1.60;;
60336;SDS011;46978;50.288;28.624;2023-04-03T04:10:06;3.19;;;1.74;;
60336;SDS011;46978;50.288;28.624;2023-04-03T04:11:09;3.98;;;1.69;;
60336;SDS011;46978;50.288;28.624;2023-04-03T04:12:10;3.24;;;1.78;;
60336;SDS011;46978;50.288;28.624;2023-04-03T04:13:12;2.84;;;1.64;;
60336;SDS011;46978;50.288;28.624;2023-04-03T04:14:14;3.29;;;1.75;;
60336;SDS011;46978;50.288;28.624;2023-04-03T04:15:15;3.48;;;1.76;;
60336;SDS011;46978;50.288;28.624;2023-04-03T04:16:17;3.37;;;1.93;;
60336;SDS011;46978;50.288;28.624;2023-04-03T04:17:19;3.14;;;1.51;;
60336;SDS011;46978;50.288;28.624;2023-04-03T04:18:21;3.19;;;1.59;;
60336;SDS011;46978;50.288;28.624;2023-04-03T04:19:22;2.34;;;1.24;;
60336;SDS011;46978;50.288;28.624;2023-04-03T04:20:25;3.21;;;1.33;;
60336;SDS011;46978;50.288;28.624;2023-04-03T04:21:27;3.06;;;1.57;;
60336;SDS011;46978;50.288;28.624;2023-04-03T04:22:28;3.86;;;1.69;;
60336;SDS011;46978;50.288;28.624;2023-04-03T04:23:30;3.00;;;1.62;;
60336;SDS011;46978;50.288;28.624;2023-04-03T04:24:32;3.24;;;1.64;;
60336;SDS011;46978;50.288;28.624;2023-04-03T04:25:33;2.49;;;1.41;;
60336;SDS011;46978;50.288;28.624;2023-04-03T04:26:35;2.39;;;1.22;;
60336;SDS011;46978;50.288;28.624;2023-04-03T04:27:37;2.47;;;1.32;;
60336;SDS011;46978;50.288;28.624;2023-04-03T04:28:39;2.85;;;1.35;;
60336;SDS011;46978;50.288;28.624;2023-04-03T04:30:49;6.02;;;2.99;;
60336;SDS011;46978;50.288;28.624;2023-04-03T04:31:50;5.19;;;2.73;;
60336;SDS011;46978;50.288;28.624;2023-04-03T04:32:52;4.34;;;2.38;;
60336;SDS011;46978;50.288;28.624;2023-04-03T04:33:54;3.31;;;2.01;;
60336;SDS011;46978;50.288;28.624;2023-04-03T04:34:55;3.21;;;1.59;;
60336;SDS011;46978;50.288;28.624;2023-04-03T04:35:57;3.65;;;1.49;;
60336;SDS011;46978;50.288;28.624;2023-04-03T04:36:59;3.66;;;1.76;;
60336;SDS011;46978;50.288;28.624;2023-04-03T04:38:00;2.89;;;1.69;;
60336;SDS011;46978;50.288;28.624;2023-04-03T04:39:02;2.34;;;1.24;;
60336;SDS011;46978;50.288;28.624;2023-04-03T04:40:07;2.47;;;1.44;;
60336;SDS011;46978;50.288;28.624;2023-04-03T04:41:09;3.29;;;1.85;;
60336;SDS011;46978;50.288;28.624;2023-04-03T04:42:11;4.08;;;2.09;;
60336;SDS011;46978;50.288;28.624;2023-04-03T04:43:12;4.53;;;2.11;;
60336;SDS011;46978;50.288;28.624;2023-04-03T04:44:14;3.58;;;1.90;;
60336;SDS011;46978;50.288;28.624;2023-04-03T04:45:16;4.31;;;2.54;;
60336;SDS011;46978;50.288;28.624;2023-04-03T04:46:18;5.03;;;2.21;;
60336;SDS011;46978;50.288;28.624;2023-04-03T04:47:20;3.91;;;1.58;;
60336;SDS011;46978;50.288;28.624;2023-04-03T04:48:21;2.81;;;1.46;;
60336;SDS011;46978;50.288;28.624;2023-04-03T04:49:23;4.36;;;2.04;;
60336;SDS011;46978;50.288;28.624;2023-04-03T04:50:25;3.82;;;2.18;;
60336;SDS011;46978;50.288;28.624;2023-04-03T04:51:27;4.33;;;1.97;;
60336;SDS011;46978;50.288;28.624;2023-04-03T04:52:34;3.30;;;1.98;;
60336;SDS011;46978;50.288;28.624;2023-04-03T04:53:36;3.12;;;1.88;;
60336;SDS011;46978;50.288;28.624;2023-04-03T04:54:38;5.02;;;1.88;;
60336;SDS011;46978;50.288;28.624;2023-04-03T04:55:42;4.62;;;2.66;;
60336;SDS011;46978;50.288;28.624;2023-04-03T04:56:43;3.68;;;2.06;;
60336;SDS011;46978;50.288;28.624;2023-04-03T04:57:45;3.94;;;2.21;;
60336;SDS011;46978;50.288;28.624;2023-04-03T04:58:47;4.32;;;2.56;;
60336;SDS011;46978;50.288;28.624;2023-04-03T04:59:50;4.73;;;2.82;;
60336;SDS011;46978;50.288;28.624;2023-04-03T05:01:05;3.62;;;2.02;;
60336;SDS011;46978;50.288;28.624;2023-04-03T05:02:08;4.32;;;2.44;;
60336;SDS011;46978;50.288;28.624;2023-04-03T05:03:10;3.04;;;1.52;;
60336;SDS011;46978;50.288;28.624;2023-04-03T05:04:12;2.59;;;1.40;;
60336;SDS011;46978;50.288;28.624;2023-04-03T05:05:13;2.96;;;1.40;;
60336;SDS011;46978;50.288;28.624;2023-04-03T05:06:15;2.62;;;1.46;;
60336;SDS011;46978;50.288;28.624;2023-04-03T05:07:17;3.05;;;1.57;;
60336;SDS011;46978;50.288;28.624;2023-04-03T05:08:19;3.34;;;1.89;;
60336;SDS011;46978;50.288;28.624;2023-04-03T05:09:21;3.52;;;1.69;;
60336;SDS011;46978;50.288;28.624;2023-04-03T05:10:23;4.77;;;2.51;;
60336;SDS011;46978;50.288;28.624;2023-04-03T05:11:24;3.36;;;1.56;;
60336;SDS011;46978;50.288;28.624;2023-04-03T05:12:26;3.78;;;1.97;;
60336;SDS011;46978;50.288;28.624;2023-04-03T05:13:28;3.75;;;1.84;;
60336;SDS011;46978;50.288;28.624;2023-04-03T05:14:29;3.37;;;2.01;;
60336;SDS011;46978;50.288;28.624;2023-04-03T05:15:31;2.25;;;1.36;;
60336;SDS011;46978;50.288;28.624;2023-04-03T05:16:34;1.94;;;1.24;;
60336;SDS011;46978;50.288;28.624;2023-04-03T05:17:36;3.29;;;1.74;;
60336;SDS011;46978;50.288;28.624;2023-04-03T05:18:38;4.32;;;1.51;;
60336;SDS011;46978;50.288;28.624;2023-04-03T05:19:39;3.44;;;1.86;;
60336;SDS011;46978;50.288;28.624;2023-04-03T05:20:41;2.67;;;1.57;;
60336;SDS011;46978;50.288;28.624;2023-04-03T05:21:43;2.43;;;1.38;;
60336;SDS011;46978;50.288;28.624;2023-04-03T05:22:45;2.71;;;1.62;;
60336;SDS011;46978;50.288;28.624;2023-04-03T05:23:47;2.91;;;1.43;;
60336;SDS011;46978;50.288;28.624;2023-04-03T05:24:48;3.42;;;1.92;;
60336;SDS011;46978;50.288;28.624;2023-04-03T05:25:50;2.66;;;1.31;;
60336;SDS011;46978;50.288;28.624;2023-04-03T05:26:51;3.24;;;1.54;;
60336;SDS011;46978;50.288;28.624;2023-04-03T05:27:53;2.98;;;1.62;;
60336;SDS011;46978;50.288;28.624;2023-04-03T05:28:55;3.29;;;1.86;;
60336;SDS011;46978;50.288;28.624;2023-04-03T05:30:13;4.09;;;1.94;;
60336;SDS011;46978;50.288;28.624;2023-04-03T05:31:15;3.14;;;1.65;;
60336;SDS011;46978;50.288;28.624;2023-04-03T05:32:17;2.11;;;1.16;;
60336;SDS011;46978;50.288;28.624;2023-04-03T05:33:18;2.64;;;1.39;;
60336;SDS011;46978;50.288;28.624;2023-04-03T05:34:20;3.32;;;1.56;;
60336;SDS011;46978;50.288;28.624;2023-04-03T05:35:22;3.31;;;1.66;;
60336;SDS011;46978;50.288;28.624;2023-04-03T05:36:23;3.71;;;1.56;;
60336;SDS011;46978;50.288;28.624;2023-04-03T05:37:25;2.23;;;1.44;;
60336;SDS011;46978;50.288;28.624;2023-04-03T05:38:27;3.14;;;1.56;;
60336;SDS011;46978;50.288;28.624;2023-04-03T05:39:28;3.24;;;1.80;;
60336;SDS011;46978;50.288;28.624;2023-04-03T05:40:31;4.01;;;1.79;;
60336;SDS011;46978;50.288;28.624;2023-04-03T05:41:34;3.40;;;1.94;;
60336;SDS011;46978;50.288;28.624;2023-04-03T05:42:36;2.90;;;1.51;;
60336;SDS011;46978;50.288;28.624;2023-04-03T05:43:37;3.45;;;1.48;;
60336;SDS011;46978;50.288;28.624;2023-04-03T05:44:39;3.11;;;1.62;;
60336;SDS011;46978;50.288;28.624;2023-04-03T05:45:41;3.40;;;1.71;;
60336;SDS011;46978;50.288;28.624;2023-04-03T05:46:43;2.94;;;1.66;;
60336;SDS011;46978;50.288;28.624;2023-04-03T05:47:45;3.23;;;1.70;;
60336;SDS011;46978;50.288;28.624;2023-04-03T05:48:47;3.91;;;1.61;;
60336;SDS011;46978;50.288;28.624;2023-04-03T05:49:49;3.82;;;1.43;;
60336;SDS011;46978;50.288;28.624;2023-04-03T05:50:51;2.79;;;1.45;;
60336;SDS011;46978;50.288;28.624;2023-04-03T05:51:53;2.54;;;1.31;;
60336;SDS011;46978;50.288;28.624;2023-04-03T05:54:24;4.89;;;2.48;;
60336;SDS011;46978;50.288;28.624;2023-04-03T05:55:27;2.79;;;1.41;;
60336;SDS011;46978;50.288;28.624;2023-04-03T05:56:30;6.31;;;3.41;;
60336;SDS011;46978;50.288;28.624;2023-04-03T05:57:31;4.64;;;2.31;;
60336;SDS011;46978;50.288;28.624;2023-04-03T05:58:33;3.17;;;1.91;;
60336;SDS011;46978;50.288;28.624;2023-04-03T05:59:35;4.71;;;2.35;;
60336;SDS011;46978;50.288;28.624;2023-04-03T06:00:37;5.30;;;2.12;;
60336;SDS011;46978;50.288;28.624;2023-04-03T06:01:38;5.79;;;2.86;;
60336;SDS011;46978;50.288;28.624;2023-04-03T06:02:40;3.50;;;1.77;;
60336;SDS011;46978;50.288;28.624;2023-04-03T06:03:42;2.73;;;1.59;;
60336;SDS011;46978;50.288;28.624;2023-04-03T06:04:44;3.13;;;1.66;;
60336;SDS011;46978;50.288;28.624;2023-04-03T06:05:46;2.57;;;1.53;;
60336;SDS011;46978;50.288;28.624;2023-04-03T06:06:49;2.56;;;1.41;;
60336;SDS011;46978;50.288;28.624;2023-04-03T06:07:52;1.95;;;1.14;;
60336;SDS011;46978;50.288;28.624;2023-04-03T06:08:54;2.13;;;1.19;;
60336;SDS011;46978;50.288;28.624;2023-04-03T06:09:56;2.94;;;1.34;;
60336;SDS011;46978;50.288;28.624;2023-04-03T06:10:58;2.43;;;1.28;;
60336;SDS011;46978;50.288;28.624;2023-04-03T06:12:00;3.88;;;1.66;;
60336;SDS011;46978;50.288;28.624;2023-04-03T06:13:03;3.41;;;1.54;;
60336;SDS011;46978;50.288;28.624;2023-04-03T06:14:05;4.98;;;2.19;;
60336;SDS011;46978;50.288;28.624;2023-04-03T06:15:07;2.59;;;1.56;;
60336;SDS011;46978;50.288;28.624;2023-04-03T06:16:13;2.66;;;1.34;;
60336;SDS011;46978;50.288;28.624;2023-04-03T06:17:18;4.08;;;1.59;;
60336;SDS011;46978;50.288;28.624;2023-04-03T06:18:19;4.00;;;1.87;;
60336;SDS011;46978;50.288;28.624;2023-04-03T06:19:21;3.06;;;1.55;;